Hanover, Maryland
Current Conditions -  °F | °C
As of 6:54 AM on Thursday 23 Oct 2014 (Local Time) from KBWI Reporting Station
Broken Clouds Broken Clouds  
Wind Chill: 53°   Ceiling: 4300
Heat Index: 53°   Visibility: 10mi
Dew Point: 43°   Wind: 12mph
Humidity: 69%   Direction: 310°NW
Pressure: 29.86"   Gusts: 17mph
Location:  39.17°N, 76.74°W
Report Text: KBWI 231054Z 31010G15KT 10SM BKN043 BKN055 BKN130 12/06 A2986 RMK AO2 SLP109 T01170061
Loading
Personal Weather Stations






























Interactive Weather Map
Tropical Storm Tracking
New forecast layout! Learn more

10-Day Weather Forecast

Advertisements
Track Severe Weather on mobile